RKJK/KUV METAR and TAF weather

Enter ICAO airport designator
Station Type Date Time Source
RKJK METAR 2020/01/23 14:56 UTC NOAA

RKJK 231456Z AUTO 36004KT 7SM CLR 02/02 A3031 RMK AO2 SLP269 T00230023 401060007 52010 $


Station Type Date Time Source
RKJK Decoded METAR 2020/01/23 14:56 UTC NOAA

Kunsan Ab, Korea, South (RKJK) 35-55N 126-37E 10M
Jan 23, 2020 - 09:56 AM EST / 2020.01.23 1456 UTC
Wind: from the N (360 degrees) at 5 MPH (4 KT):0
Visibility: 7 mile(s):0
Sky conditions: clear
Temperature: 36.1 F (2.3 C)
Dew Point: 36.1 F (2.3 C)
Relative Humidity: 100%
Pressure (altimeter): 30.31 in. Hg (1026 hPa)
Pressure tendency: 0.03 inches (1.0 hPa) higher than three hours ago
ob: RKJK 231456Z AUTO 36004KT 7SM CLR 02/02 A3031 RMK AO2 SLP269 T00230023 401060007 52010
cycle: 15

Station Type Date Time Source
RKJK TAF 2020/01/23 15:06 UTC NOAA

TAF TAF RKJK 231500Z 2315/2421 35009KT 9999 FEW030 QNH3028INS
TEMPO 2318/2323 8000 BR
BECMG 2418/2419 35006KT 9999 SCT100 QNH3032INS TX10/2407Z TN01/2323Z

Example: see airport list